createdAt,value
2022-11-13T00:01:59.155Z,41.53
2022-11-13T00:04:27.940Z,43.07
2022-11-13T00:06:59.384Z,60.67
2022-11-13T00:09:28.435Z,68.57
2022-11-13T00:11:57.392Z,64.97
2022-11-13T00:14:26.330Z,55.33
2022-11-13T00:16:55.150Z,75.53
2022-11-13T00:19:25.306Z,74.47
2022-11-13T00:21:54.885Z,87.57
2022-11-13T00:24:23.579Z,104.30
2022-11-13T00:26:52.276Z,85.77
2022-11-13T00:29:21.047Z,72.23
2022-11-13T00:31:49.780Z,123.20
2022-11-13T00:34:47.227Z,116.23
2022-11-13T00:37:08.577Z,112.73
2022-11-13T00:39:37.390Z,137.20
2022-11-13T00:42:06.301Z,161.97
2022-11-13T00:44:34.981Z,195.67
2022-11-13T00:47:03.788Z,260.17
2022-11-13T00:49:32.443Z,194.70
2022-11-13T00:52:03.014Z,146.37
2022-11-13T00:54:33.106Z,141.27
2022-11-13T00:57:01.772Z,243.13
2022-11-13T00:59:30.517Z,120.40
2022-11-13T01:01:59.239Z,119.43
2022-11-13T01:04:29.521Z,137.00
2022-11-13T01:06:58.280Z,84.93
2022-11-13T01:09:27.356Z,64.70
2022-11-13T01:11:57.792Z,77.40
2022-11-13T01:14:26.527Z,73.67
2022-11-13T01:16:55.336Z,140.30
2022-11-13T01:19:24.069Z,61.97
2022-11-13T01:21:52.755Z,90.07
2022-11-13T01:24:21.475Z,109.17
2022-11-13T01:26:50.321Z,66.87
2022-11-13T01:29:20.417Z,56.70
2022-11-13T01:31:49.142Z,70.33
2022-11-13T01:34:18.110Z,84.17
2022-11-13T01:36:47.175Z,85.10
2022-11-13T01:39:15.932Z,102.70
2022-11-13T01:41:44.652Z,70.67
2022-11-13T01:44:16.370Z,67.60
2022-11-13T01:46:48.468Z,104.57
2022-11-13T01:49:31.362Z,166.37
2022-11-13T01:52:04.321Z,98.90
2022-11-13T01:54:36.277Z,76.20
2022-11-13T01:57:07.069Z,82.80
2022-11-13T01:59:40.698Z,87.60
2022-11-13T02:02:11.631Z,59.87
2022-11-13T02:04:40.769Z,80.77
2022-11-13T02:07:11.297Z,87.17
2022-11-13T02:09:42.025Z,97.17
2022-11-13T02:12:14.248Z,107.90
2022-11-13T02:14:45.838Z,142.63
2022-11-13T02:17:19.379Z,130.73
2022-11-13T02:19:52.857Z,154.63
2022-11-13T02:22:27.267Z,133.77
2022-11-13T02:24:59.614Z,160.47
2022-11-13T02:27:33.072Z,104.43
2022-11-13T02:30:16.182Z,127.67
2022-11-13T02:32:46.509Z,244.07
2022-11-13T02:35:18.138Z,107.53
2022-11-13T02:37:46.944Z,87.23
2022-11-13T02:40:18.191Z,61.83
2022-11-13T02:42:47.503Z,91.30
2022-11-13T02:45:17.505Z,67.27
2022-11-13T02:47:46.727Z,66.50
2022-11-13T02:50:16.137Z,69.97
2022-11-13T02:52:48.449Z,170.17
2022-11-13T02:55:21.014Z,100.27
2022-11-13T02:57:49.937Z,58.00
2022-11-13T03:00:19.825Z,42.63
2022-11-13T03:02:48.868Z,123.17
2022-11-13T03:05:17.928Z,70.80
2022-11-13T03:07:46.673Z,62.90
2022-11-13T03:10:17.697Z,67.80
2022-11-13T03:12:46.586Z,51.17
2022-11-13T03:15:15.990Z,75.47
2022-11-13T03:17:44.704Z,46.07
2022-11-13T03:20:13.374Z,62.90
2022-11-13T03:22:42.081Z,144.63
2022-11-13T03:25:11.301Z,80.07
2022-11-13T03:27:41.490Z,120.00
2022-11-13T03:30:11.349Z,111.77
2022-11-13T03:32:40.038Z,46.37
2022-11-13T03:35:10.015Z,84.80
2022-11-13T03:37:38.937Z,132.50
2022-11-13T03:40:09.029Z,46.63
2022-11-13T03:42:37.769Z,85.73
2022-11-13T03:45:08.377Z,62.33
2022-11-13T03:47:37.081Z,102.63
2022-11-13T03:50:06.395Z,59.10
2022-11-13T03:52:35.109Z,218.97
2022-11-13T03:55:03.848Z,98.10
2022-11-13T03:57:32.534Z,143.40
2022-11-13T04:00:01.212Z,71.27
2022-11-13T04:02:31.271Z,87.33
2022-11-13T04:04:59.942Z,108.97
2022-11-13T04:07:28.614Z,96.93
2022-11-13T04:09:57.269Z,87.27
2022-11-13T04:12:25.883Z,57.43
2022-11-13T04:14:54.560Z,160.40
2022-11-13T04:17:23.222Z,54.50
2022-11-13T04:19:53.409Z,41.83
2022-11-13T04:22:22.044Z,45.73
2022-11-13T04:24:51.138Z,43.57
2022-11-13T04:27:19.848Z,57.73
2022-11-13T04:29:48.502Z,59.67
2022-11-13T04:32:17.324Z,47.50
2022-11-13T04:34:46.620Z,52.03
2022-11-13T04:37:17.051Z,40.03
2022-11-13T04:39:45.843Z,45.17
2022-11-13T04:42:32.099Z,49.00
2022-11-13T04:45:00.902Z,49.53
2022-11-13T04:47:30.081Z,60.80
2022-11-13T04:50:01.039Z,45.40
2022-11-13T04:52:32.405Z,56.47
2022-11-13T04:55:01.620Z,62.43
2022-11-13T04:57:31.571Z,45.97
2022-11-13T05:00:01.193Z,45.10
2022-11-13T05:02:30.330Z,40.70
2022-11-13T05:05:04.615Z,36.03
2022-11-13T05:07:36.482Z,40.87
2022-11-13T05:10:06.193Z,42.20
2022-11-13T05:12:35.355Z,51.77
2022-11-13T05:15:05.115Z,35.67
2022-11-13T05:17:34.875Z,48.23
2022-11-13T05:20:03.844Z,33.63
2022-11-13T05:22:34.507Z,30.83
2022-11-13T05:25:04.089Z,26.23
2022-11-13T05:27:33.064Z,23.50
2022-11-13T05:30:02.296Z,34.17
2022-11-13T05:32:31.855Z,30.07
2022-11-13T05:35:00.903Z,27.30
2022-11-13T05:37:31.543Z,33.70
2022-11-13T05:40:01.997Z,34.80
2022-11-13T05:42:30.913Z,30.17
2022-11-13T05:44:59.672Z,24.73
2022-11-13T05:47:28.607Z,23.93
2022-11-13T05:49:57.401Z,25.00
2022-11-13T05:52:26.290Z,34.73
2022-11-13T05:54:55.238Z,25.50
2022-11-13T05:57:25.791Z,28.63
2022-11-13T05:59:54.790Z,24.47
2022-11-13T06:02:23.643Z,26.30
2022-11-13T06:04:56.425Z,24.63
2022-11-13T06:07:25.764Z,23.90
2022-11-13T06:09:54.623Z,25.13
2022-11-13T06:12:24.877Z,19.43
2022-11-13T06:14:53.782Z,19.03
2022-11-13T06:17:23.280Z,27.43
2022-11-13T06:19:53.691Z,23.00
2022-11-13T06:22:23.060Z,19.47
2022-11-13T06:24:55.506Z,20.83
2022-11-13T06:27:29.988Z,20.97
2022-11-13T06:29:59.650Z,25.60
2022-11-13T06:32:29.246Z,26.20
2022-11-13T06:34:59.095Z,27.67
2022-11-13T06:37:33.685Z,24.97
2022-11-13T06:40:10.645Z,29.50
2022-11-13T06:43:25.500Z,23.93
2022-11-13T06:46:09.016Z,24.20
2022-11-13T06:48:40.644Z,26.03
2022-11-13T06:51:17.894Z,27.50
2022-11-13T06:53:48.711Z,26.17
2022-11-13T06:56:19.011Z,19.70
2022-11-13T06:58:49.494Z,18.10
2022-11-13T07:01:20.339Z,24.33
2022-11-13T07:03:51.871Z,27.80
2022-11-13T07:06:23.339Z,23.33
2022-11-13T07:08:57.156Z,24.30
2022-11-13T07:11:27.475Z,20.03
2022-11-13T07:14:01.231Z,24.70
2022-11-13T07:16:44.051Z,27.90
2022-11-13T07:19:23.495Z,23.50
2022-11-13T07:21:57.354Z,36.53
2022-11-13T07:24:30.307Z,37.53
2022-11-13T07:26:59.870Z,39.30
2022-11-13T07:29:31.075Z,44.67
2022-11-13T07:32:08.447Z,36.93
2022-11-13T07:34:41.040Z,32.10
2022-11-13T07:40:05.290Z,39.73
2022-11-13T07:42:44.049Z,27.70
2022-11-13T07:45:30.600Z,26.80
2022-11-13T07:48:12.104Z,40.70
2022-11-13T07:50:49.376Z,42.13
2022-11-13T07:53:26.217Z,28.23
2022-11-13T07:56:02.360Z,23.13
2022-11-13T07:58:48.254Z,25.17
2022-11-13T08:01:20.965Z,22.30
2022-11-13T08:03:54.856Z,19.77
2022-11-13T08:06:28.196Z,22.00
2022-11-13T08:08:57.439Z,19.87
2022-11-13T08:11:26.408Z,21.73
2022-11-13T08:13:55.418Z,23.07
2022-11-13T08:16:28.334Z,20.53
2022-11-13T08:18:57.201Z,20.00
2022-11-13T08:21:45.241Z,17.70
2022-11-13T08:24:26.193Z,21.00
2022-11-13T08:27:09.025Z,18.53
2022-11-13T08:29:50.740Z,19.70
2022-11-13T08:32:31.823Z,17.40
2022-11-13T08:35:04.219Z,21.93
2022-11-13T08:38:01.690Z,22.67
2022-11-13T08:40:43.228Z,20.80
2022-11-13T08:46:59.278Z,19.70
2022-11-13T08:49:54.156Z,16.80
2022-11-13T08:53:19.209Z,19.50
2022-11-13T08:56:23.255Z,14.13
2022-11-13T08:59:35.855Z,19.30
2022-11-13T09:05:28.492Z,20.03
2022-11-13T09:08:07.480Z,12.47
2022-11-13T09:11:00.570Z,16.17
2022-11-13T09:14:05.962Z,15.30
2022-11-13T09:19:41.296Z,21.43
2022-11-13T09:22:33.585Z,15.80
2022-11-13T09:25:15.302Z,14.60
2022-11-13T09:28:05.344Z,19.90
2022-11-13T09:31:02.776Z,22.37
2022-11-13T09:33:53.519Z,15.80
2022-11-13T09:36:58.232Z,15.70
2022-11-13T09:39:46.164Z,18.00
2022-11-13T09:42:22.272Z,14.03
2022-11-13T09:45:02.735Z,27.00
2022-11-13T09:47:57.591Z,26.60
2022-11-13T09:50:42.455Z,25.90
2022-11-13T09:53:29.905Z,21.47
2022-11-13T09:56:37.228Z,24.13
2022-11-13T09:59:19.569Z,23.47
2022-11-13T10:02:38.069Z,12.30
2022-11-13T10:05:29.306Z,21.33
2022-11-13T10:08:20.457Z,27.53
2022-11-13T10:11:00.677Z,20.47
2022-11-13T10:13:43.312Z,16.73
2022-11-13T10:16:32.689Z,17.77
2022-11-13T10:19:31.237Z,13.40
2022-11-13T10:22:31.660Z,18.00
2022-11-13T10:25:11.181Z,21.63
2022-11-13T10:28:49.527Z,21.27
2022-11-13T10:31:16.610Z,17.07
2022-11-13T10:33:49.163Z,17.73
2022-11-13T10:36:27.455Z,16.07
2022-11-13T10:39:07.022Z,14.47
2022-11-13T10:41:48.289Z,26.67
2022-11-13T10:44:25.940Z,13.03
2022-11-13T10:47:36.029Z,39.40
2022-11-13T10:50:20.342Z,18.80
2022-11-13T10:52:52.142Z,16.37
2022-11-13T10:55:28.803Z,16.20
2022-11-13T10:57:59.281Z,15.63
2022-11-13T11:00:32.971Z,14.50
2022-11-13T11:03:03.562Z,14.50
2022-11-13T11:05:32.983Z,15.47
2022-11-13T11:08:03.026Z,17.90
2022-11-13T11:10:35.557Z,17.90
2022-11-13T11:13:11.925Z,18.13
2022-11-13T11:15:47.359Z,18.87
2022-11-13T11:18:26.354Z,16.50
2022-11-13T11:20:59.435Z,19.13
2022-11-13T11:23:42.740Z,17.10
2022-11-13T11:26:16.252Z,17.37
2022-11-13T11:28:49.528Z,14.10
2022-11-13T11:31:26.836Z,13.80
2022-11-13T11:34:02.043Z,18.17
2022-11-13T11:36:34.451Z,13.30
2022-11-13T11:39:16.969Z,19.87
2022-11-13T11:41:51.513Z,18.50
2022-11-13T11:44:27.854Z,15.70
2022-11-13T11:46:56.676Z,12.90
2022-11-13T11:49:29.001Z,14.33
2022-11-13T11:52:09.921Z,14.07
2022-11-13T11:54:44.524Z,15.30
2022-11-13T11:57:55.857Z,16.30
2022-11-13T12:00:26.821Z,12.73
2022-11-13T12:03:30.693Z,13.00
2022-11-13T12:06:24.766Z,14.73
2022-11-13T12:09:29.934Z,15.63
2022-11-13T12:12:15.277Z,16.50
2022-11-13T12:15:12.077Z,17.10
2022-11-13T12:18:09.557Z,17.23
2022-11-13T12:20:50.181Z,14.17
2022-11-13T12:23:35.619Z,12.80
2022-11-13T12:26:27.930Z,12.87
2022-11-13T12:29:17.446Z,18.90
2022-11-13T12:32:32.640Z,12.70
2022-11-13T12:35:06.020Z,14.00
2022-11-13T12:40:44.192Z,14.73
2022-11-13T12:43:47.047Z,13.57
2022-11-13T12:46:50.142Z,16.77
2022-11-13T12:49:46.951Z,15.67
2022-11-13T12:52:24.665Z,14.90
2022-11-13T12:55:20.636Z,13.00
2022-11-13T12:57:51.231Z,13.90
2022-11-13T13:00:29.570Z,11.53
2022-11-13T13:03:18.091Z,15.93
2022-11-13T13:06:12.883Z,21.90
2022-11-13T13:09:14.153Z,16.83
2022-11-13T13:11:52.249Z,18.90
2022-11-13T13:14:41.905Z,14.03
2022-11-13T13:17:22.948Z,16.60
2022-11-13T13:20:00.617Z,17.23
2022-11-13T13:22:33.890Z,18.43
2022-11-13T13:25:11.908Z,17.10
2022-11-13T13:27:43.544Z,26.33
2022-11-13T13:30:22.242Z,42.73
2022-11-13T13:33:02.223Z,29.10
2022-11-13T13:35:38.774Z,29.67
2022-11-13T13:38:17.095Z,38.17
2022-11-13T13:41:00.677Z,16.83
2022-11-13T13:43:41.409Z,26.10
2022-11-13T13:46:16.674Z,20.30
2022-11-13T13:48:48.108Z,16.80
2022-11-13T13:51:24.939Z,19.30
2022-11-13T13:53:54.730Z,18.33
2022-11-13T13:56:24.684Z,19.57
2022-11-13T13:58:55.269Z,19.67
2022-11-13T14:01:33.994Z,17.30
2022-11-13T14:04:08.472Z,21.63
2022-11-13T14:09:23.934Z,20.20
2022-11-13T14:12:00.698Z,21.13
2022-11-13T14:14:30.908Z,19.10
2022-11-13T14:17:01.769Z,20.23
2022-11-13T14:19:30.540Z,24.60
2022-11-13T14:22:02.921Z,17.90
2022-11-13T14:24:35.912Z,19.53
2022-11-13T14:27:07.847Z,17.90
2022-11-13T14:29:38.827Z,18.40
2022-11-13T14:32:13.953Z,23.20
2022-11-13T14:34:45.766Z,22.53
2022-11-13T14:37:23.584Z,20.00
2022-11-13T14:39:54.233Z,17.33
2022-11-13T14:42:27.592Z,17.60
2022-11-13T14:45:06.967Z,24.80
2022-11-13T14:47:37.732Z,14.00
2022-11-13T14:53:26.782Z,25.93
2022-11-13T14:55:58.633Z,34.20
2022-11-13T14:58:32.282Z,29.53
2022-11-13T15:01:12.767Z,33.50
2022-11-13T15:03:41.614Z,24.80
2022-11-13T15:06:14.052Z,34.93
2022-11-13T15:08:43.115Z,36.13
2022-11-13T15:11:15.796Z,23.80
2022-11-13T15:13:45.056Z,169.47
2022-11-13T15:16:17.990Z,47.77
2022-11-13T15:18:49.960Z,29.70
2022-11-13T15:21:19.110Z,32.30
2022-11-13T15:23:47.859Z,31.50
2022-11-13T15:26:18.134Z,38.33
2022-11-13T15:28:46.980Z,39.63
2022-11-13T15:31:21.300Z,44.30
2022-11-13T15:33:50.181Z,27.03
2022-11-13T15:36:18.927Z,88.80
2022-11-13T15:38:47.828Z,72.33
2022-11-13T15:41:20.891Z,58.37
2022-11-13T15:43:51.131Z,39.97
2022-11-13T15:46:21.056Z,33.77
2022-11-13T15:48:50.613Z,64.57
2022-11-13T15:51:22.387Z,37.37
2022-11-13T15:53:55.053Z,50.47
2022-11-13T15:56:26.068Z,52.97
2022-11-13T15:58:54.794Z,45.50
2022-11-13T16:01:32.219Z,38.90
2022-11-13T16:04:02.547Z,41.13
2022-11-13T16:06:31.542Z,39.30
2022-11-13T16:09:00.326Z,43.30
2022-11-13T16:11:33.028Z,39.33
2022-11-13T16:14:02.329Z,44.63
2022-11-13T16:16:34.947Z,48.40
2022-11-13T16:19:04.267Z,34.83
2022-11-13T16:21:35.389Z,44.80
2022-11-13T16:24:04.283Z,42.60
2022-11-13T16:26:34.765Z,43.43
2022-11-13T16:29:18.976Z,48.33
2022-11-13T16:31:47.960Z,47.93
2022-11-13T16:34:16.659Z,49.77
2022-11-13T16:36:45.715Z,40.10
2022-11-13T16:39:17.560Z,51.33
2022-11-13T16:41:47.643Z,59.03
2022-11-13T16:44:16.403Z,69.20
2022-11-13T16:46:49.637Z,48.53
2022-11-13T16:49:19.484Z,50.93
2022-11-13T16:51:52.908Z,56.93
2022-11-13T16:54:21.564Z,55.30
2022-11-13T16:56:51.737Z,60.97
2022-11-13T16:59:20.459Z,45.30
2022-11-13T17:01:49.110Z,51.33
2022-11-13T17:04:17.825Z,51.73
2022-11-13T17:06:47.160Z,38.70
2022-11-13T17:09:16.244Z,49.63
2022-11-13T17:11:45.202Z,57.67
2022-11-13T17:14:15.690Z,38.57
2022-11-13T17:16:44.311Z,54.10
2022-11-13T17:19:14.971Z,47.40
2022-11-13T17:21:44.520Z,46.90
2022-11-13T17:24:13.388Z,50.50
2022-11-13T17:26:42.017Z,59.20
2022-11-13T17:29:10.654Z,50.50
2022-11-13T17:31:40.689Z,54.43
2022-11-13T17:34:09.405Z,48.73
2022-11-13T17:36:38.141Z,55.23
2022-11-13T17:39:06.733Z,58.97
2022-11-13T17:41:37.183Z,59.70
2022-11-13T17:44:06.198Z,55.07
2022-11-13T17:46:34.874Z,66.30
2022-11-13T17:49:05.061Z,61.83
2022-11-13T17:51:33.657Z,54.17
2022-11-13T17:54:02.399Z,61.20
2022-11-13T17:56:31.148Z,62.90
2022-11-13T17:58:59.891Z,67.77
2022-11-13T18:01:31.457Z,66.57
2022-11-13T18:04:00.483Z,66.60
2022-11-13T18:06:30.673Z,60.50
2022-11-13T18:08:59.343Z,75.20
2022-11-13T18:11:31.330Z,69.40
2022-11-13T18:14:00.022Z,77.13
2022-11-13T18:16:31.506Z,63.50
2022-11-13T18:19:01.292Z,83.40
2022-11-13T18:21:33.575Z,76.07
2022-11-13T18:24:04.879Z,72.40
2022-11-13T18:26:34.626Z,80.67
2022-11-13T18:29:03.677Z,68.80
2022-11-13T18:31:32.568Z,68.20
2022-11-13T18:34:02.514Z,68.63
2022-11-13T18:36:34.789Z,75.30
2022-11-13T18:39:04.053Z,69.57
2022-11-13T18:41:33.739Z,84.17
2022-11-13T18:44:02.813Z,67.57
2022-11-13T18:46:31.858Z,77.10
2022-11-13T18:49:00.633Z,69.53
2022-11-13T18:51:35.476Z,74.00
2022-11-13T18:54:09.675Z,75.60
2022-11-13T18:56:39.998Z,76.33
2022-11-13T18:59:09.015Z,80.27
2022-11-13T19:01:39.862Z,70.00
2022-11-13T19:04:25.672Z,75.47
2022-11-13T19:06:56.173Z,70.70
2022-11-13T19:09:24.906Z,74.67
2022-11-13T19:11:55.053Z,53.73
2022-11-13T19:14:23.788Z,55.90
2022-11-13T19:16:52.516Z,72.33
2022-11-13T19:19:23.382Z,60.50
2022-11-13T19:21:56.426Z,46.50
2022-11-13T19:24:26.456Z,51.03
2022-11-13T19:26:55.144Z,64.67
2022-11-13T19:29:23.813Z,70.47
2022-11-13T19:31:53.701Z,53.20
2022-11-13T19:34:22.417Z,55.13
2022-11-13T19:36:51.519Z,63.20
2022-11-13T19:39:20.603Z,54.13
2022-11-13T19:41:50.861Z,73.43
2022-11-13T19:44:19.508Z,61.60
2022-11-13T19:46:49.804Z,75.40
2022-11-13T19:49:18.608Z,64.73
2022-11-13T19:51:47.340Z,58.60
2022-11-13T19:54:17.119Z,54.40
2022-11-13T19:56:45.770Z,61.00
2022-11-13T19:59:16.177Z,58.43
2022-11-13T20:01:44.852Z,54.23
2022-11-13T20:04:14.615Z,43.23
2022-11-13T20:06:43.399Z,52.37
2022-11-13T20:09:12.182Z,39.77
2022-11-13T20:11:41.674Z,57.37
2022-11-13T20:14:12.875Z,60.83
2022-11-13T20:16:43.043Z,58.83
2022-11-13T20:19:11.814Z,52.27
2022-11-13T20:21:40.906Z,47.90
2022-11-13T20:24:11.824Z,56.37
2022-11-13T20:26:40.732Z,59.10
2022-11-13T20:29:09.532Z,58.80
2022-11-13T20:31:38.389Z,62.23
2022-11-13T20:34:08.682Z,51.97
2022-11-13T20:36:37.454Z,54.40
2022-11-13T20:39:09.361Z,59.33
2022-11-13T20:41:38.504Z,66.70
2022-11-13T20:44:07.632Z,59.63
2022-11-13T20:46:36.526Z,51.63
2022-11-13T20:49:05.781Z,25.83
2022-11-13T20:51:36.025Z,53.73
2022-11-13T20:54:05.007Z,45.60
2022-11-13T20:56:33.739Z,51.03
2022-11-13T20:59:04.087Z,55.40
2022-11-13T21:01:34.398Z,55.60
2022-11-13T21:04:03.337Z,58.23
2022-11-13T21:06:32.081Z,55.80
2022-11-13T21:09:03.592Z,49.50
2022-11-13T21:11:33.015Z,55.20
2022-11-13T21:14:01.758Z,51.77
2022-11-13T21:16:30.610Z,51.50
2022-11-13T21:19:00.791Z,40.63
2022-11-13T21:21:29.561Z,63.93
2022-11-13T21:23:59.481Z,56.33
2022-11-13T21:26:30.023Z,55.60
2022-11-13T21:29:00.254Z,47.90
2022-11-13T21:31:29.235Z,52.20
2022-11-13T21:33:59.374Z,56.70
2022-11-13T21:36:29.530Z,59.17
2022-11-13T21:38:58.569Z,50.27
2022-11-13T21:41:29.012Z,62.07
2022-11-13T21:43:59.636Z,42.50
2022-11-13T21:46:30.888Z,50.00
2022-11-13T21:49:02.400Z,52.50
2022-11-13T21:51:32.054Z,58.80
2022-11-13T21:54:01.287Z,49.33
2022-11-13T21:56:33.329Z,46.50
2022-11-13T21:59:02.308Z,41.73
2022-11-13T22:01:37.841Z,43.83
2022-11-13T22:04:07.615Z,48.90
2022-11-13T22:06:37.228Z,45.17
2022-11-13T22:09:08.385Z,42.73
2022-11-13T22:11:38.928Z,49.63
2022-11-13T22:14:08.001Z,48.47
2022-11-13T22:16:38.449Z,47.03
2022-11-13T22:19:10.854Z,43.17
2022-11-13T22:21:39.882Z,45.73
2022-11-13T22:24:09.591Z,45.87
2022-11-13T22:26:41.290Z,42.43
2022-11-13T22:29:10.121Z,46.13
2022-11-13T22:31:39.327Z,39.10
2022-11-13T22:34:08.205Z,42.33
2022-11-13T22:36:39.086Z,41.47
2022-11-13T22:39:14.702Z,43.53
2022-11-13T22:41:47.283Z,41.47
2022-11-13T22:44:28.572Z,42.07
2022-11-13T22:47:09.057Z,37.60
2022-11-13T22:49:38.810Z,42.90
2022-11-13T22:52:09.230Z,38.70
2022-11-13T22:54:41.071Z,39.37
2022-11-13T22:57:13.969Z,38.13
2022-11-13T22:59:44.485Z,46.37
2022-11-13T23:02:14.763Z,40.90
2022-11-13T23:04:44.810Z,39.77
2022-11-13T23:07:18.947Z,36.73
2022-11-13T23:09:54.195Z,35.63
2022-11-13T23:12:30.930Z,36.73
2022-11-13T23:15:05.346Z,34.83
2022-11-13T23:17:35.889Z,36.43
2022-11-13T23:20:21.348Z,38.87
2022-11-13T23:22:52.380Z,43.90
2022-11-13T23:28:12.511Z,37.83
2022-11-13T23:30:43.860Z,42.23
2022-11-13T23:33:14.502Z,47.90
2022-11-13T23:35:59.540Z,34.60
2022-11-13T23:38:29.698Z,38.67
2022-11-13T23:41:02.750Z,34.07
2022-11-13T23:46:30.391Z,42.80
2022-11-13T23:49:01.818Z,37.50
2022-11-13T23:51:33.182Z,33.47
2022-11-13T23:54:12.553Z,34.53
2022-11-13T23:56:42.814Z,34.47
2022-11-13T23:59:16.881Z,34.17
